Time;durP1;ratioP1;P1;durP2;ratioP2;P2;SDS_P1;SDS_P2;PMS_P1;PMS_P2;Temp;Humidity;BMP_temperature;BMP_pressure;BME280_temperature;BME280_humidity;BME280_pressure;Samples;Min_cycle;Max_cycle;Signal;HPM_P1;HPM_P2
2023/08/11 00:00:56;;;;;;;3.10;1.70;;;22.80;75.70;;;;;;5035726;28;20102;-74
2023/08/11 00:03:22;;;;;;;2.33;1.48;;;22.70;75.80;;;;;;5017719;28;20502;-73
2023/08/11 00:05:48;;;;;;;1.80;1.60;;;22.70;75.70;;;;;;5035802;28;20036;-75
2023/08/11 00:08:14;;;;;;;2.20;1.58;;;22.70;75.90;;;;;;5035531;28;20037;-73
2023/08/11 00:10:40;;;;;;;4.60;1.80;;;22.70;76.10;;;;;;5035662;28;20098;-73
2023/08/11 00:13:08;;;;;;;4.03;1.60;;;22.60;76.00;;;;;;5017274;28;20495;-74
2023/08/11 00:15:39;;;;;;;3.53;1.60;;;22.60;76.20;;;;;;5035178;28;20022;-75
2023/08/11 00:18:07;;;;;;;3.87;1.60;;;22.60;76.20;;;;;;5035531;28;20029;-74
2023/08/11 00:20:33;;;;;;;3.83;1.67;;;22.60;76.30;;;;;;5035366;28;20267;-74
2023/08/11 00:22:58;;;;;;;4.20;1.75;;;22.60;76.50;;;;;;5035184;28;20376;-73
2023/08/11 00:25:24;;;;;;;3.03;1.50;;;22.60;76.40;;;;;;5035011;28;20025;-74
2023/08/11 00:27:50;;;;;;;2.83;1.77;;;22.60;76.30;;;;;;5040504;28;20043;-74
2023/08/11 00:30:16;;;;;;;2.35;1.50;;;22.50;76.40;;;;;;5054596;28;20037;-74
2023/08/11 00:32:42;;;;;;;2.47;1.63;;;22.60;76.60;;;;;;5054767;28;20083;-74
2023/08/11 00:35:08;;;;;;;3.53;1.50;;;22.60;76.50;;;;;;5054714;28;20049;-74
2023/08/11 00:37:34;;;;;;;2.85;1.42;;;22.50;76.20;;;;;;5054589;28;20048;-73
2023/08/11 00:40:00;;;;;;;4.15;1.70;;;22.60;76.40;;;;;;5054757;28;20021;-73
2023/08/11 00:42:25;;;;;;;4.32;1.70;;;22.50;76.30;;;;;;5054505;28;20033;-73
2023/08/11 00:44:51;;;;;;;2.22;1.40;;;22.50;76.20;;;;;;5054464;28;20100;-75
2023/08/11 00:47:17;;;;;;;2.38;1.63;;;22.60;76.20;;;;;;5054523;28;20033;-74
2023/08/11 00:49:44;;;;;;;1.92;1.55;;;22.50;76.20;;;;;;5054709;28;20029;-74
2023/08/11 00:52:11;;;;;;;4.00;1.70;;;22.50;76.20;;;;;;5054812;28;20060;-74
2023/08/11 00:54:39;;;;;;;4.38;1.40;;;22.50;76.20;;;;;;5035939;28;20399;-74
2023/08/11 00:57:05;;;;;;;2.88;1.75;;;22.50;76.10;;;;;;5055152;28;20036;-74
2023/08/11 00:59:30;;;;;;;2.35;1.50;;;22.50;76.20;;;;;;5051674;28;20025;-73
2023/08/11 01:01:56;;;;;;;3.10;1.58;;;22.50;76.40;;;;;;5051573;28;20033;-73
2023/08/11 01:04:22;;;;;;;2.30;1.50;;;22.50;76.40;;;;;;5052000;28;20024;-74
2023/08/11 01:06:57;;;;;;;4.43;1.42;;;22.50;76.20;;;;;;5035679;28;20053;-75
2023/08/11 01:09:28;;;;;;;2.67;1.77;;;22.50;76.30;;;;;;5054042;28;20029;-75
2023/08/11 01:12:00;;;;;;;2.35;1.42;;;22.40;76.30;;;;;;5054331;28;20049;-76
2023/08/11 01:14:26;;;;;;;;;;;22.40;76.10;;;;;;5053926;28;20065;-74
2023/08/11 01:16:53;;;;;;;2.08;1.55;;;22.40;76.00;;;;;;5053722;28;19952;-73
2023/08/11 01:19:38;;;;;;;2.67;1.70;;;22.40;76.30;;;;;;5053751;28;20025;-73
2023/08/11 01:22:10;;;;;;;2.35;1.55;;;22.40;76.50;;;;;;5053454;28;20501;-73
2023/08/11 01:24:37;;;;;;;3.60;1.50;;;22.30;76.50;;;;;;5053826;28;20108;-73
2023/08/11 01:27:03;;;;;;;2.03;1.60;;;22.40;76.70;;;;;;5053582;28;20051;-74
2023/08/11 01:29:29;;;;;;;4.60;1.48;;;22.30;76.90;;;;;;5053475;28;20021;-73
2023/08/11 01:31:55;;;;;;;2.42;1.60;;;22.30;77.20;;;;;;5053952;28;20143;-73
2023/08/11 01:34:21;;;;;;;2.88;1.58;;;22.20;77.40;;;;;;5054297;28;20104;-74
2023/08/11 01:36:50;;;;;;;3.08;1.55;;;22.30;77.50;;;;;;5053429;28;20132;-73
2023/08/11 01:39:16;;;;;;;1.77;1.50;;;22.20;77.40;;;;;;5053787;28;20417;-73
2023/08/11 01:41:42;;;;;;;2.10;1.50;;;22.20;77.20;;;;;;5053720;28;20075;-74
2023/08/11 01:44:08;;;;;;;2.13;1.63;;;22.20;77.20;;;;;;5054122;28;20108;-74
2023/08/11 01:46:34;;;;;;;3.08;1.60;;;22.20;76.70;;;;;;5053705;28;20050;-73
2023/08/11 01:49:01;;;;;;;1.90;1.70;;;22.20;76.60;;;;;;5053802;28;20067;-73
2023/08/11 01:51:27;;;;;;;2.55;1.55;;;22.20;76.70;;;;;;5053807;28;20027;-73
2023/08/11 01:53:53;;;;;;;6.88;2.63;;;22.20;76.80;;;;;;5053722;28;20100;-73
2023/08/11 01:56:20;;;;;;;3.90;1.63;;;22.10;76.80;;;;;;5053876;28;20060;-74
2023/08/11 01:58:47;;;;;;;14.65;1.70;;;22.20;76.80;;;;;;5053643;28;20052;-74
2023/08/11 02:01:13;;;;;;;2.92;1.60;;;22.10;76.70;;;;;;5053622;28;20013;-74
2023/08/11 02:03:40;;;;;;;3.40;1.75;;;22.10;76.80;;;;;;5053645;28;20064;-74
2023/08/11 02:06:05;;;;;;;2.13;1.70;;;22.10;76.80;;;;;;5053407;28;20033;-73
2023/08/11 02:08:32;;;;;;;1.70;1.33;;;22.10;76.70;;;;;;5053649;28;20470;-73
2023/08/11 02:10:57;;;;;;;2.63;1.52;;;22.10;76.70;;;;;;5053399;28;20025;-74
2023/08/11 02:13:23;;;;;;;3.67;1.75;;;22.10;77.10;;;;;;5053584;28;20100;-73
2023/08/11 02:15:49;;;;;;;2.40;1.50;;;22.10;76.90;;;;;;5053510;28;20021;-73
2023/08/11 02:18:15;;;;;;;4.07;1.70;;;22.00;76.70;;;;;;5053398;28;20040;-74
2023/08/11 02:20:41;;;;;;;3.45;1.60;;;22.00;76.70;;;;;;5053249;28;20040;-74
2023/08/11 02:23:08;;;;;;;3.03;1.40;;;22.00;76.80;;;;;;5053140;28;20590;-74
2023/08/11 02:25:34;;;;;;;3.53;1.52;;;22.00;76.80;;;;;;5053208;28;20477;-73
2023/08/11 02:28:00;;;;;;;1.73;1.50;;;22.00;76.70;;;;;;5052799;28;20039;-73
2023/08/11 02:30:29;;;;;;;4.05;1.63;;;22.00;76.90;;;;;;5053072;28;20021;-73
2023/08/11 02:32:55;;;;;;;3.20;1.80;;;21.90;76.80;;;;;;5052851;28;20021;-73
2023/08/11 02:35:21;;;;;;;4.03;1.90;;;21.90;77.20;;;;;;5053041;28;20526;-73
2023/08/11 02:37:48;;;;;;;2.80;1.40;;;21.90;77.80;;;;;;5053151;28;20513;-74
2023/08/11 02:40:19;;;;;;;1.95;1.30;;;21.80;77.30;;;;;;5035070;28;20474;-74
2023/08/11 02:42:54;;;;;;;4.28;2.20;;;21.80;77.30;;;;;;5053055;28;20545;-73
2023/08/11 02:45:20;;;;;;;1.90;1.70;;;21.80;77.30;;;;;;5052791;28;20463;-72
2023/08/11 02:47:46;;;;;;;4.10;1.48;;;21.80;77.30;;;;;;5052776;28;20589;-75
2023/08/11 02:50:13;;;;;;;3.63;1.52;;;21.70;77.20;;;;;;5052664;28;20028;-73
2023/08/11 02:52:38;;;;;;;4.28;1.90;;;21.70;77.10;;;;;;5052581;28;20028;-75
2023/08/11 02:55:05;;;;;;;4.25;1.85;;;21.70;77.10;;;;;;5052621;28;20021;-75
2023/08/11 02:57:32;;;;;;;2.13;1.50;;;21.70;77.10;;;;;;5052687;28;20387;-74
2023/08/11 02:59:57;;;;;;;3.35;1.92;;;21.60;77.10;;;;;;5052502;28;20092;-74
2023/08/11 03:02:23;;;;;;;3.55;1.90;;;21.60;77.00;;;;;;5052398;28;20104;-75
2023/08/11 03:04:49;;;;;;;1.90;1.48;;;21.60;77.10;;;;;;5052477;28;20024;-73
2023/08/11 03:07:16;;;;;;;3.45;1.80;;;21.60;76.90;;;;;;5052438;28;20071;-73
2023/08/11 03:09:42;;;;;;;2.42;1.50;;;21.60;76.90;;;;;;5052503;28;20013;-73
2023/08/11 03:12:08;;;;;;;4.43;1.73;;;21.60;76.90;;;;;;5052683;28;20032;-74
2023/08/11 03:14:36;;;;;;;2.90;1.60;;;21.60;77.10;;;;;;5052545;28;20021;-74
2023/08/11 03:17:05;;;;;;;3.15;1.85;;;21.50;76.70;;;;;;5054501;28;20665;-73
2023/08/11 03:19:32;;;;;;;3.13;1.70;;;21.50;76.60;;;;;;5056601;28;20527;-75
2023/08/11 03:21:58;;;;;;;5.45;1.70;;;21.50;76.50;;;;;;5056570;28;20032;-74
2023/08/11 03:24:24;;;;;;;2.42;1.70;;;21.50;76.60;;;;;;5056745;28;20024;-73
2023/08/11 03:26:49;;;;;;;4.47;1.90;;;21.50;76.50;;;;;;5056349;28;20032;-73
2023/08/11 03:29:15;;;;;;;3.63;1.60;;;21.50;76.70;;;;;;5056186;28;20107;-74
2023/08/11 03:31:41;;;;;;;2.70;1.88;;;21.50;76.70;;;;;;5056411;28;20033;-74
2023/08/11 03:34:07;;;;;;;12.88;1.80;;;21.50;76.50;;;;;;5056637;28;20545;-73
2023/08/11 03:36:33;;;;;;;3.88;1.85;;;21.50;76.50;;;;;;5056268;28;20093;-74
2023/08/11 03:38:59;;;;;;;3.47;1.88;;;21.50;76.60;;;;;;5056611;28;20049;-73
2023/08/11 03:41:25;;;;;;;4.45;1.70;;;21.50;76.70;;;;;;5056363;28;20025;-73
2023/08/11 03:43:50;;;;;;;3.45;1.67;;;21.40;76.90;;;;;;5056066;28;20048;-72
2023/08/11 03:46:16;;;;;;;2.78;1.65;;;21.40;77.20;;;;;;5039542;28;20028;-74
2023/08/11 03:48:42;;;;;;;2.15;1.70;;;21.50;77.00;;;;;;5036349;28;20041;-74
2023/08/11 03:51:08;;;;;;;2.47;1.55;;;21.40;77.10;;;;;;5036408;28;20105;-73
2023/08/11 03:53:35;;;;;;;4.10;3.00;;;21.40;76.90;;;;;;5034885;28;20383;-73
2023/08/11 03:56:00;;;;;;;2.63;1.55;;;21.40;76.70;;;;;;5036253;28;20018;-73
2023/08/11 03:58:26;;;;;;;3.00;1.77;;;21.40;76.70;;;;;;5036306;28;20017;-74
2023/08/11 04:00:53;;;;;;;2.75;1.60;;;21.40;76.50;;;;;;5036028;28;20021;-74
2023/08/11 04:03:19;;;;;;;1.52;1.33;;;21.40;76.50;;;;;;5036187;28;20095;-74
2023/08/11 04:05:45;;;;;;;4.45;1.60;;;21.40;76.50;;;;;;5035720;28;20030;-73
2023/08/11 04:08:11;;;;;;;3.30;1.73;;;21.40;76.50;;;;;;5035801;28;20052;-73
2023/08/11 04:10:37;;;;;;;3.42;2.08;;;21.40;76.40;;;;;;5035768;28;20026;-73
2023/08/11 04:13:03;;;;;;;2.72;1.75;;;21.30;76.40;;;;;;5035610;28;20063;-74
2023/08/11 04:15:31;;;;;;;2.28;1.80;;;21.30;76.80;;;;;;5036032;28;20026;-73
2023/08/11 04:17:57;;;;;;;5.53;1.85;;;21.30;76.70;;;;;;5035591;28;20379;-74
2023/08/11 04:20:23;;;;;;;2.15;1.83;;;21.30;76.90;;;;;;5035917;28;20036;-74
2023/08/11 04:22:49;;;;;;;3.97;2.10;;;21.30;76.80;;;;;;5035524;28;20033;-74
2023/08/11 04:25:14;;;;;;;3.13;1.75;;;21.30;76.90;;;;;;5035493;28;20025;-73
2023/08/11 04:27:41;;;;;;;4.20;1.77;;;21.30;76.90;;;;;;5035331;28;20037;-74
2023/08/11 04:30:08;;;;;;;2.90;1.73;;;21.30;77.10;;;;;;5035399;28;20026;-73
2023/08/11 04:32:34;;;;;;;3.30;2.00;;;21.30;77.40;;;;;;5035559;28;20126;-73
2023/08/11 04:34:59;;;;;;;3.65;2.10;;;21.40;77.60;;;;;;5048586;28;20515;-74
2023/08/11 04:37:26;;;;;;;4.13;2.10;;;21.30;78.00;;;;;;5055421;28;20024;-73
2023/08/11 04:39:51;;;;;;;8.02;2.28;;;21.30;78.10;;;;;;5055356;28;20056;-72
2023/08/11 04:42:17;;;;;;;4.45;2.00;;;21.30;78.80;;;;;;5055119;28;20071;-73
2023/08/11 04:44:43;;;;;;;8.55;2.58;;;21.30;78.50;;;;;;5055230;28;20017;-74
2023/08/11 04:47:09;;;;;;;4.88;2.00;;;21.30;78.70;;;;;;5054790;28;20044;-73
2023/08/11 04:49:35;;;;;;;5.70;2.20;;;21.30;78.90;;;;;;5054838;28;20013;-74
2023/08/11 04:52:01;;;;;;;6.05;2.30;;;21.30;79.10;;;;;;5035313;28;20029;-73
2023/08/11 04:54:27;;;;;;;7.10;2.00;;;21.20;79.30;;;;;;5035010;28;20029;-73
2023/08/11 04:56:53;;;;;;;3.63;1.80;;;21.20;79.60;;;;;;5034548;28;20025;-73
2023/08/11 04:59:20;;;;;;;5.13;2.45;;;21.20;79.70;;;;;;5034904;28;20025;-73
2023/08/11 05:01:45;;;;;;;4.30;2.35;;;21.20;79.90;;;;;;5033885;28;20029;-73
2023/08/11 05:04:11;;;;;;;2.70;1.88;;;21.20;80.00;;;;;;5032918;28;20029;-73
2023/08/11 05:06:37;;;;;;;2.90;1.70;;;21.20;80.00;;;;;;5032947;28;20030;-73
2023/08/11 05:09:03;;;;;;;6.55;1.80;;;21.30;80.00;;;;;;5032669;28;20552;-73
2023/08/11 05:11:29;;;;;;;4.57;1.80;;;21.20;79.60;;;;;;5032872;28;20326;-74
2023/08/11 05:13:55;;;;;;;2.63;1.73;;;21.20;80.20;;;;;;5032903;28;20104;-72
2023/08/11 05:16:22;;;;;;;4.05;1.92;;;21.30;80.00;;;;;;5032455;28;20063;-73
2023/08/11 05:18:47;;;;;;;4.32;1.90;;;21.30;80.10;;;;;;5032867;28;20033;-74
2023/08/11 05:21:13;;;;;;;5.68;2.00;;;21.30;80.00;;;;;;5033269;28;20029;-73
2023/08/11 05:23:39;;;;;;;2.25;1.60;;;21.30;80.00;;;;;;5032551;28;20021;-73
2023/08/11 05:26:05;;;;;;;3.28;1.98;;;21.30;79.70;;;;;;5032486;28;20022;-72
2023/08/11 05:28:31;;;;;;;3.17;1.80;;;21.30;79.40;;;;;;5032427;28;20041;-72
2023/08/11 05:30:57;;;;;;;2.85;1.80;;;21.30;79.50;;;;;;5032239;28;20483;-73
2023/08/11 05:33:24;;;;;;;2.40;1.90;;;21.30;79.80;;;;;;5032277;28;20080;-74
2023/08/11 05:35:51;;;;;;;3.80;2.00;;;21.40;80.00;;;;;;5032501;28;20045;-74
2023/08/11 05:38:21;;;;;;;3.65;1.80;;;21.40;79.90;;;;;;5034286;28;20038;-74
2023/08/11 05:40:47;;;;;;;3.83;1.80;;;21.40;79.60;;;;;;5033426;28;20030;-73
2023/08/11 05:43:13;;;;;;;3.30;1.80;;;21.50;79.40;;;;;;5034199;28;20055;-73
2023/08/11 05:45:39;;;;;;;3.25;1.73;;;21.50;79.90;;;;;;5034394;28;20025;-73
2023/08/11 05:48:05;;;;;;;4.78;1.83;;;21.50;79.30;;;;;;5033914;28;20034;-74
2023/08/11 05:50:30;;;;;;;3.28;1.63;;;21.50;79.20;;;;;;5034030;28;20079;-74
2023/08/11 05:52:56;;;;;;;3.33;1.90;;;21.60;79.10;;;;;;5034014;28;20109;-73
2023/08/11 05:55:22;;;;;;;4.68;1.83;;;21.60;78.90;;;;;;5033911;28;20108;-73
2023/08/11 05:57:49;;;;;;;3.53;1.83;;;21.60;78.90;;;;;;5033917;28;20025;-75
2023/08/11 06:00:18;;;;;;;4.70;2.20;;;21.70;79.00;;;;;;5033676;28;20056;-73
2023/08/11 06:02:47;;;;;;;1.85;1.60;;;21.70;79.00;;;;;;5033751;28;20029;-75
2023/08/11 06:05:13;;;;;;;1.90;1.30;;;21.80;78.90;;;;;;5015527;28;20072;-74
2023/08/11 06:07:39;;;;;;;2.35;1.80;;;21.80;78.70;;;;;;5034220;28;20061;-76
2023/08/11 06:10:06;;;;;;;3.22;1.75;;;21.80;78.60;;;;;;5033238;28;20029;-74
2023/08/11 06:12:32;;;;;;;3.13;1.70;;;21.80;78.90;;;;;;5015567;28;20494;-73
2023/08/11 06:14:58;;;;;;;6.28;2.10;;;21.90;78.90;;;;;;5033385;28;20047;-75
2023/08/11 06:17:24;;;;;;;4.22;1.80;;;21.90;78.90;;;;;;5033412;28;20084;-74
2023/08/11 06:19:50;;;;;;;3.83;2.08;;;21.90;78.90;;;;;;5033618;28;20483;-75
2023/08/11 06:22:16;;;;;;;9.23;2.10;;;22.00;79.10;;;;;;5033224;28;20076;-73
2023/08/11 06:24:43;;;;;;;4.93;2.00;;;22.00;79.20;;;;;;5031938;28;20017;-76
2023/08/11 06:27:09;;;;;;;5.57;2.20;;;22.10;79.00;;;;;;5032955;28;20117;-73
2023/08/11 06:29:35;;;;;;;7.93;1.60;;;22.10;78.90;;;;;;5033345;28;20375;-74
2023/08/11 06:32:01;;;;;;;2.22;1.50;;;22.10;78.90;;;;;;5033640;28;20025;-72
2023/08/11 06:34:27;;;;;;;3.70;1.77;;;22.20;79.00;;;;;;5032979;28;20463;-72
2023/08/11 06:36:53;;;;;;;4.00;1.65;;;22.20;78.90;;;;;;5032992;28;20037;-72
2023/08/11 06:39:19;;;;;;;4.38;1.90;;;22.20;78.70;;;;;;5032941;28;20075;-72
2023/08/11 06:41:45;;;;;;;2.03;1.70;;;22.30;78.60;;;;;;5032952;28;20029;-75
2023/08/11 06:44:11;;;;;;;2.72;1.70;;;22.30;78.70;;;;;;5032861;28;20101;-73
2023/08/11 06:46:37;;;;;;;7.82;2.05;;;22.40;78.80;;;;;;5032935;28;20026;-72
2023/08/11 06:49:03;;;;;;;5.07;2.38;;;22.40;78.30;;;;;;5032539;28;20021;-73
2023/08/11 06:51:28;;;;;;;2.65;1.80;;;22.40;78.70;;;;;;5031976;28;20112;-74
2023/08/11 06:53:54;;;;;;;2.30;1.80;;;22.50;78.60;;;;;;5032554;28;20018;-74
2023/08/11 06:56:20;;;;;;;3.10;1.80;;;22.50;78.30;;;;;;5032131;28;20022;-74
2023/08/11 06:58:46;;;;;;;4.65;2.05;;;22.50;78.00;;;;;;5032616;28;20040;-73
2023/08/11 07:01:12;;;;;;;3.20;2.10;;;22.50;77.90;;;;;;5032600;28;20053;-74
2023/08/11 07:03:37;;;;;;;2.60;1.60;;;22.60;78.10;;;;;;5032723;28;20084;-73
2023/08/11 07:06:03;;;;;;;4.80;1.95;;;22.60;78.40;;;;;;5032901;28;20601;-72
2023/08/11 07:08:29;;;;;;;5.07;2.00;;;22.60;78.20;;;;;;5032883;28;20038;-72
2023/08/11 07:10:55;;;;;;;5.82;1.83;;;22.70;78.30;;;;;;5032839;28;20017;-71
2023/08/11 07:13:21;;;;;;;1.92;1.73;;;22.80;78.10;;;;;;5031403;28;20071;-73
2023/08/11 07:15:47;;;;;;;4.70;2.20;;;22.80;77.90;;;;;;5032574;28;20025;-73
2023/08/11 07:18:13;;;;;;;4.00;1.85;;;22.80;77.80;;;;;;5032751;28;20101;-73
2023/08/11 07:20:42;;;;;;;3.22;1.75;;;22.90;77.90;;;;;;5032683;28;20116;-72
2023/08/11 07:23:08;;;;;;;5.35;1.85;;;22.90;77.40;;;;;;5032888;28;20475;-72
2023/08/11 07:25:34;;;;;;;4.22;1.90;;;23.00;77.10;;;;;;5032544;28;20064;-73
2023/08/11 07:28:00;;;;;;;3.03;1.75;;;23.00;78.20;;;;;;5032369;28;20060;-73
2023/08/11 07:30:26;;;;;;;5.65;2.03;;;23.10;77.20;;;;;;5032489;28;20032;-73
2023/08/11 07:32:51;;;;;;;2.53;2.33;;;23.10;77.40;;;;;;5032384;28;20068;-73
2023/08/11 07:35:17;;;;;;;2.88;2.20;;;23.10;77.70;;;;;;5032425;28;20069;-73
2023/08/11 07:37:43;;;;;;;3.05;2.53;;;23.20;77.40;;;;;;5032481;28;20053;-73
2023/08/11 07:40:09;;;;;;;6.75;2.60;;;23.20;77.30;;;;;;5032370;28;20044;-73
2023/08/11 07:42:35;;;;;;;7.28;3.15;;;23.20;77.40;;;;;;5032402;28;20479;-73
2023/08/11 07:45:01;;;;;;;42.75;5.35;;;23.20;77.30;;;;;;5032456;28;20044;-73
2023/08/11 07:47:26;;;;;;;91.03;7.32;;;23.30;77.50;;;;;;5032249;28;20205;-73
2023/08/11 07:49:52;;;;;;;8.77;3.00;;;23.30;78.30;;;;;;5030852;28;20025;-74
2023/08/11 07:52:18;;;;;;;6.43;2.95;;;23.40;78.10;;;;;;5031954;28;20030;-74
2023/08/11 07:54:44;;;;;;;4.47;3.38;;;23.40;77.90;;;;;;5032335;28;20014;-74
2023/08/11 07:57:10;;;;;;;8.43;2.92;;;23.40;77.90;;;;;;5032266;28;20022;-74
2023/08/11 07:59:36;;;;;;;12.40;2.90;;;23.50;78.10;;;;;;5032272;28;20022;-74
2023/08/11 08:02:03;;;;;;;11.15;2.55;;;23.50;78.20;;;;;;5030945;28;20443;-74
2023/08/11 08:04:29;;;;;;;3.00;2.35;;;23.60;78.50;;;;;;5035445;28;20036;-74
2023/08/11 08:06:55;;;;;;;4.28;2.90;;;23.60;78.30;;;;;;5035746;28;20033;-74
2023/08/11 08:09:21;;;;;;;4.00;2.25;;;23.70;77.90;;;;;;5036020;28;20022;-73
2023/08/11 08:11:48;;;;;;;3.78;2.00;;;23.70;77.30;;;;;;5035691;28;20022;-73
2023/08/11 08:14:14;;;;;;;9.20;2.45;;;23.80;77.00;;;;;;5035579;28;20033;-73
2023/08/11 08:16:47;;;;;;;2.92;2.10;;;23.80;76.70;;;;;;5035602;28;20017;-74
2023/08/11 08:19:18;;;;;;;2.50;1.95;;;23.80;77.00;;;;;;5035598;28;20033;-74
2023/08/11 08:21:46;;;;;;;5.13;1.90;;;23.90;76.60;;;;;;5035817;28;20025;-74
2023/08/11 08:24:14;;;;;;;5.47;2.30;;;23.90;76.50;;;;;;5035551;28;20041;-74
2023/08/11 08:26:40;;;;;;;2.83;1.95;;;23.90;77.00;;;;;;5035473;28;20069;-73
2023/08/11 08:29:06;;;;;;;12.48;3.10;;;24.00;76.70;;;;;;5035215;28;20036;-75
2023/08/11 08:31:32;;;;;;;6.35;2.45;;;24.00;76.50;;;;;;5035066;28;20083;-73
2023/08/11 08:33:58;;;;;;;3.72;2.08;;;24.10;77.60;;;;;;5035437;28;20029;-74
2023/08/11 08:36:24;;;;;;;4.82;1.92;;;24.10;76.50;;;;;;5035174;28;20045;-73
2023/08/11 08:38:50;;;;;;;2.75;1.58;;;24.10;76.70;;;;;;5035025;28;20201;-74
2023/08/11 08:41:20;;;;;;;3.03;1.88;;;24.20;77.40;;;;;;5016478;28;20127;-73
2023/08/11 08:43:51;;;;;;;4.00;1.92;;;24.20;77.20;;;;;;5033025;28;20080;-74
2023/08/11 08:46:20;;;;;;;4.05;2.40;;;24.20;76.60;;;;;;5034648;28;20056;-73
2023/08/11 08:49:22;;;;;;;2.40;1.90;;;24.30;77.50;;;;;;5034300;28;20377;-74
2023/08/11 08:51:49;;;;;;;4.72;1.80;;;24.30;77.10;;;;;;5044794;28;20048;-73
2023/08/11 08:54:14;;;;;;;3.72;1.92;;;24.30;76.70;;;;;;5047950;28;20036;-73
2023/08/11 08:56:40;;;;;;;2.90;1.85;;;24.40;77.20;;;;;;5034520;28;20030;-73
2023/08/11 08:59:07;;;;;;;4.25;2.10;;;24.50;76.70;;;;;;5016573;28;20032;-73
2023/08/11 09:01:35;;;;;;;3.63;2.50;;;24.50;76.50;;;;;;5034023;28;20467;-73
2023/08/11 09:04:01;;;;;;;2.28;1.83;;;24.50;76.20;;;;;;5054467;28;20136;-75
2023/08/11 09:06:27;;;;;;;2.33;1.50;;;24.60;75.90;;;;;;5054780;28;20036;-74
2023/08/11 09:08:53;;;;;;;2.75;2.00;;;24.60;75.00;;;;;;5054059;28;20090;-74
2023/08/11 09:11:19;;;;;;;5.32;1.63;;;24.70;75.00;;;;;;5054536;28;20025;-73
2023/08/11 09:13:45;;;;;;;5.85;1.90;;;24.70;74.80;;;;;;5053610;28;20021;-74
2023/08/11 09:16:13;;;;;;;4.93;2.17;;;24.70;75.40;;;;;;5043797;28;20025;-72
2023/08/11 09:18:39;;;;;;;3.10;2.08;;;24.80;75.40;;;;;;5034203;28;20049;-73
2023/08/11 09:21:05;;;;;;;3.95;2.00;;;24.80;74.50;;;;;;5033988;28;20065;-77
2023/08/11 09:23:33;;;;;;;5.45;2.20;;;24.90;73.90;;;;;;5031883;28;20056;-75
2023/08/11 09:26:01;;;;;;;2.45;1.80;;;24.90;73.00;;;;;;5032098;28;20021;-76
2023/08/11 09:28:27;;;;;;;3.72;2.50;;;25.00;73.40;;;;;;5032382;28;20030;-76
2023/08/11 09:30:53;;;;;;;4.25;2.40;;;25.10;73.90;;;;;;5032460;28;20100;-77
2023/08/11 09:33:22;;;;;;;5.28;2.20;;;25.10;73.50;;;;;;5048202;28;20064;-75
2023/08/11 09:35:48;;;;;;;7.05;2.50;;;25.20;72.40;;;;;;5032995;28;20057;-76
2023/08/11 09:38:15;;;;;;;4.93;1.80;;;25.20;71.30;;;;;;5034013;28;20032;-74
2023/08/11 09:40:41;;;;;;;3.28;2.00;;;25.20;68.60;;;;;;5034041;28;20032;-75
2023/08/11 09:43:07;;;;;;;5.90;2.70;;;25.30;69.60;;;;;;5034240;28;20025;-75
2023/08/11 09:45:33;;;;;;;4.30;2.30;;;25.30;70.30;;;;;;5034155;28;20033;-75
2023/08/11 09:47:59;;;;;;;4.65;1.75;;;25.30;70.40;;;;;;5033619;28;20134;-77
2023/08/11 09:50:27;;;;;;;2.00;1.73;;;25.30;69.90;;;;;;5033941;28;20165;-76
2023/08/11 09:52:53;;;;;;;2.65;2.03;;;25.40;70.10;;;;;;5033900;28;20136;-75
2023/08/11 09:55:20;;;;;;;5.15;1.90;;;25.30;71.00;;;;;;5032592;28;20072;-74
2023/08/11 09:57:48;;;;;;;2.80;2.10;;;25.50;71.40;;;;;;5033148;28;20499;-75
2023/08/11 10:00:14;;;;;;;5.25;2.20;;;25.50;70.30;;;;;;5033846;28;20032;-76
2023/08/11 10:02:47;;;;;;;6.38;2.00;;;25.50;69.40;;;;;;5033153;28;20025;-76
2023/08/11 10:05:15;;;;;;;4.55;1.95;;;25.60;70.20;;;;;;5032940;28;20368;-76
2023/08/11 10:07:44;;;;;;;4.32;1.80;;;25.60;69.60;;;;;;5033485;28;20120;-75
2023/08/11 10:10:13;;;;;;;2.90;1.80;;;25.60;69.00;;;;;;5033600;28;20475;-76
2023/08/11 10:12:45;;;;;;;5.25;2.63;;;25.70;69.80;;;;;;5049013;28;20037;-76
2023/08/11 10:15:11;;;;;;;3.33;1.70;;;25.70;69.20;;;;;;5033682;28;20029;-75
2023/08/11 10:17:38;;;;;;;4.25;2.10;;;25.70;69.00;;;;;;5033540;28;20021;-76
2023/08/11 10:20:06;;;;;;;3.33;1.83;;;25.80;67.90;;;;;;5032960;28;20029;-75
2023/08/11 10:22:33;;;;;;;6.90;2.90;;;25.80;68.40;;;;;;5033383;28;20021;-75
2023/08/11 10:25:01;;;;;;;3.85;2.05;;;25.80;68.30;;;;;;5033303;28;20080;-75
2023/08/11 10:27:28;;;;;;;5.57;2.20;;;25.80;68.50;;;;;;5033288;28;20120;-75
2023/08/11 10:29:56;;;;;;;2.58;1.80;;;25.80;68.30;;;;;;5033400;28;20025;-75
2023/08/11 10:32:31;;;;;;;5.43;1.80;;;25.90;68.70;;;;;;5033437;28;20036;-75
2023/08/11 10:34:57;;;;;;;5.93;2.10;;;25.90;69.20;;;;;;5033263;28;20068;-75
2023/08/11 10:37:31;;;;;;;3.80;2.20;;;26.00;69.20;;;;;;5033418;28;20495;-75
2023/08/11 10:40:09;;;;;;;3.53;1.92;;;26.00;68.00;;;;;;5033189;28;20048;-75
2023/08/11 10:42:41;;;;;;;2.92;1.80;;;26.00;67.90;;;;;;5032857;28;20025;-76
2023/08/11 10:45:12;;;;;;;3.30;1.60;;;26.00;67.70;;;;;;5032631;28;20021;-77
2023/08/11 10:47:43;;;;;;;3.25;1.92;;;26.00;68.30;;;;;;5032724;28;20038;-75
2023/08/11 10:50:12;;;;;;;2.88;1.75;;;26.10;68.60;;;;;;5033077;28;20025;-73
2023/08/11 10:52:40;;;;;;;3.65;1.80;;;26.10;69.20;;;;;;5032583;28;20073;-74
2023/08/11 10:55:07;;;;;;;4.80;1.80;;;26.10;69.40;;;;;;5032397;28;20021;-74
2023/08/11 10:57:34;;;;;;;3.13;1.80;;;26.20;68.20;;;;;;5032706;28;20463;-73
2023/08/11 11:00:00;;;;;;;4.50;2.58;;;26.20;67.40;;;;;;5032674;28;20467;-75
2023/08/11 11:02:26;;;;;;;6.05;2.42;;;26.20;67.50;;;;;;5032799;28;20032;-75
2023/08/11 11:04:52;;;;;;;3.65;2.83;;;26.30;67.60;;;;;;5032796;28;20028;-74
2023/08/11 11:07:22;;;;;;;4.95;2.45;;;26.30;68.10;;;;;;5032773;28;20061;-76
2023/08/11 11:09:49;;;;;;;2.67;1.75;;;26.30;68.80;;;;;;5032233;28;20049;-76
2023/08/11 11:12:15;;;;;;;4.95;3.97;;;26.40;68.30;;;;;;5032779;28;20022;-75
2023/08/11 11:14:41;;;;;;;5.30;3.47;;;26.40;67.80;;;;;;5027624;28;20048;-74
2023/08/11 11:17:07;;;;;;;5.93;3.22;;;26.50;67.50;;;;;;5029742;28;20121;-75
2023/08/11 11:19:33;;;;;;;7.45;5.57;;;26.50;66.80;;;;;;5032270;28;20032;-75
2023/08/11 11:21:59;;;;;;;6.65;3.50;;;26.60;65.30;;;;;;5032610;28;20080;-77
2023/08/11 11:24:25;;;;;;;2.00;1.73;;;26.60;66.00;;;;;;5032514;28;20021;-78
2023/08/11 11:26:52;;;;;;;7.40;3.88;;;26.70;67.40;;;;;;5015048;28;20032;-77
2023/08/11 11:29:23;;;;;;;3.75;2.90;;;26.70;67.60;;;;;;5032981;28;20029;-77
2023/08/11 11:31:50;;;;;;;5.75;4.32;;;26.70;66.60;;;;;;5032647;28;20030;-76
2023/08/11 11:34:17;;;;;;;8.38;6.85;;;26.80;66.80;;;;;;5032521;28;20108;-76
2023/08/11 11:36:43;;;;;;;11.40;4.35;;;26.80;67.20;;;;;;5032458;28;20054;-77
2023/08/11 11:39:10;;;;;;;4.00;3.13;;;26.80;67.40;;;;;;5033703;28;20033;-78
2023/08/11 11:41:36;;;;;;;6.30;3.53;;;26.90;66.50;;;;;;5033835;28;20797;-77
2023/08/11 11:44:02;;;;;;;3.97;2.55;;;26.90;66.70;;;;;;5034094;28;20033;-77
2023/08/11 11:46:32;;;;;;;5.03;3.53;;;27.00;67.10;;;;;;5036256;28;20021;-75
2023/08/11 11:49:00;;;;;;;4.75;2.20;;;27.00;66.30;;;;;;5036415;28;20136;-76
2023/08/11 11:51:29;;;;;;;2.85;1.70;;;27.10;67.10;;;;;;5036117;28;20484;-77
2023/08/11 11:53:58;;;;;;;2.60;1.50;;;27.10;65.30;;;;;;5035658;28;20021;-78
2023/08/11 11:56:26;;;;;;;1.60;1.42;;;27.10;64.90;;;;;;5035968;28;20022;-76
2023/08/11 11:58:52;;;;;;;2.45;2.20;;;27.10;64.50;;;;;;5036188;28;20037;-75
2023/08/11 12:01:20;;;;;;;7.40;2.88;;;27.10;65.10;;;;;;5036304;28;20037;-75
2023/08/11 12:03:50;;;;;;;7.85;4.30;;;27.10;65.40;;;;;;5036060;28;20049;-75
2023/08/11 12:06:18;;;;;;;4.88;2.70;;;27.10;64.20;;;;;;5036359;28;20416;-75
2023/08/11 12:08:44;;;;;;;4.65;2.00;;;27.10;64.60;;;;;;5036136;28;20392;-76
2023/08/11 12:11:12;;;;;;;2.30;1.85;;;27.20;65.00;;;;;;5017943;28;20025;-76
2023/08/11 12:13:40;;;;;;;3.65;2.80;;;27.20;62.80;;;;;;5035685;28;20104;-76
2023/08/11 12:16:07;;;;;;;6.40;3.33;;;27.20;63.20;;;;;;5035676;28;20387;-78
2023/08/11 12:18:33;;;;;;;1.90;1.48;;;27.20;65.10;;;;;;5035742;28;20025;-77
2023/08/11 12:21:01;;;;;;;4.47;2.08;;;27.30;64.60;;;;;;5017662;28;20025;-75
2023/08/11 12:23:27;;;;;;;3.70;1.60;;;27.30;64.30;;;;;;5035580;28;20021;-76
2023/08/11 12:25:54;;;;;;;4.50;1.90;;;27.30;63.60;;;;;;5035401;28;20057;-76
2023/08/11 12:28:20;;;;;;;1.88;1.70;;;27.30;62.90;;;;;;5035638;28;20084;-77
2023/08/11 12:30:46;;;;;;;3.30;1.70;;;27.30;63.00;;;;;;5035716;28;20053;-78
2023/08/11 12:33:12;;;;;;;3.17;2.65;;;27.30;63.10;;;;;;5017518;28;20029;-77
2023/08/11 12:35:38;;;;;;;23.02;18.02;;;27.40;63.60;;;;;;5018009;28;20104;-76
2023/08/11 12:38:12;;;;;;;3.72;1.80;;;27.40;63.00;;;;;;5035426;28;20109;-76
2023/08/11 12:40:44;;;;;;;5.00;2.22;;;27.50;62.40;;;;;;5035101;28;20053;-76
2023/08/11 12:43:10;;;;;;;5.53;2.10;;;27.50;63.50;;;;;;5035115;28;20028;-78
2023/08/11 12:45:37;;;;;;;3.10;2.05;;;27.50;62.80;;;;;;5035192;28;20392;-77